Terminal Aerodrome Forecast
Issued by NWS

Home | Current Version | Previous Version | Graphics & Text | Print | Product List | Glossary On
Versions: 1 2 3 4 5 6 7 8 9 10 11 12 13
000
FTUS43 KMPX 221731
TAFAXN
TAF
KAXN 221731Z 2218/2318 28014G18KT P6SM FEW150
     FM230100 33007KT P6SM SKC
     FM231200 34008KT P6SM SCT015 BKN025=

USA.gov is the U.S. government's official web portal to all federal, state and local government web resources and services.